createdAt,value
2018-05-27T00:00:06.441Z,18.60
2018-05-27T00:02:35.353Z,18.60
2018-05-27T00:05:04.304Z,18.50
2018-05-27T00:07:33.225Z,18.50
2018-05-27T00:10:02.172Z,18.40
2018-05-27T00:12:31.874Z,18.30
2018-05-27T00:15:00.873Z,18.30
2018-05-27T00:17:34.870Z,18.20
2018-05-27T00:20:06.445Z,18.20
2018-05-27T00:22:35.458Z,18.20
2018-05-27T00:25:04.466Z,18.20
2018-05-27T00:27:33.467Z,18.20
2018-05-27T00:30:02.537Z,18.30
2018-05-27T00:32:31.487Z,18.20
2018-05-27T00:35:00.484Z,18.10
2018-05-27T00:37:29.437Z,18.00
2018-05-27T00:40:12.462Z,18.00
2018-05-27T00:42:46.032Z,18.00
2018-05-27T00:45:36.544Z,18.00
2018-05-27T00:48:21.406Z,18.00
2018-05-27T00:51:44.939Z,17.90
2018-05-27T00:54:14.180Z,17.90
2018-05-27T01:02:53.289Z,17.80
2018-05-27T01:05:22.336Z,17.70
2018-05-27T01:07:51.241Z,17.60
2018-05-27T01:10:20.259Z,17.50
2018-05-27T01:12:49.229Z,17.50
2018-05-27T01:15:18.172Z,17.40
2018-05-27T01:18:10.190Z,17.30
2018-05-27T01:46:59.081Z,17.20
2018-05-27T01:49:27.926Z,17.10
2018-05-27T01:51:57.661Z,17.20
2018-05-27T01:54:26.589Z,17.20
2018-05-27T01:56:55.531Z,17.20
2018-05-27T01:59:24.507Z,17.20
2018-05-27T02:01:54.259Z,17.20
2018-05-27T02:04:23.545Z,17.10
2018-05-27T02:06:52.459Z,17.20
2018-05-27T02:09:21.437Z,17.10
2018-05-27T02:11:50.358Z,17.00
2018-05-27T02:14:19.284Z,17.00
2018-05-27T02:16:49.026Z,16.90
2018-05-27T02:19:17.910Z,16.90
2018-05-27T02:21:46.816Z,16.90
2018-05-27T02:24:15.800Z,16.90
2018-05-27T02:26:44.711Z,16.80
2018-05-27T02:29:13.686Z,16.80
2018-05-27T02:31:42.591Z,16.80
2018-05-27T02:34:11.522Z,16.80
2018-05-27T02:36:41.284Z,16.80
2018-05-27T02:39:10.177Z,16.70
2018-05-27T02:41:39.855Z,16.80
2018-05-27T02:44:09.054Z,16.70
2018-05-27T02:46:38.079Z,16.80
2018-05-27T02:49:07.055Z,16.80
2018-05-27T02:51:36.088Z,16.80
2018-05-27T02:54:05.134Z,16.80
2018-05-27T02:56:34.188Z,16.70
2018-05-27T02:59:03.151Z,16.70
2018-05-27T03:01:32.168Z,16.70
2018-05-27T03:04:01.199Z,16.60
2018-05-27T03:06:30.222Z,16.50
2018-05-27T03:08:59.241Z,16.50
2018-05-27T03:11:28.204Z,16.40
2018-05-27T03:13:57.202Z,16.30
2018-05-27T03:16:26.256Z,16.30
2018-05-27T03:18:55.997Z,16.30
2018-05-27T03:21:25.016Z,16.20
2018-05-27T03:23:54.056Z,16.20
2018-05-27T03:26:23.802Z,16.20
2018-05-27T03:28:52.780Z,16.10
2018-05-27T03:31:21.826Z,16.20
2018-05-27T03:33:50.853Z,16.20
2018-05-27T03:36:19.894Z,16.20
2018-05-27T03:38:48.959Z,16.20
2018-05-27T03:41:17.959Z,16.40
2018-05-27T03:43:46.936Z,16.70
2018-05-27T03:46:15.992Z,16.80
2018-05-27T03:48:45.776Z,17.20
2018-05-27T03:51:14.833Z,17.10
2018-05-27T03:53:44.078Z,17.30
2018-05-27T03:56:13.056Z,17.30
2018-05-27T03:58:42.020Z,17.40
2018-05-27T04:01:11.767Z,17.30
2018-05-27T04:03:40.697Z,17.30
2018-05-27T04:06:28.153Z,17.30
2018-05-27T04:08:57.206Z,17.20
2018-05-27T04:11:26.128Z,17.30
2018-05-27T04:13:56.036Z,17.40
2018-05-27T04:16:25.038Z,17.30
2018-05-27T04:18:54.015Z,17.50
2018-05-27T04:21:23.054Z,17.70
2018-05-27T04:23:51.954Z,17.80
2018-05-27T04:26:20.954Z,17.90
2018-05-27T04:28:49.912Z,18.00
2018-05-27T04:31:18.914Z,18.20
2018-05-27T04:33:47.942Z,18.30
2018-05-27T04:36:16.892Z,18.50
2018-05-27T04:38:45.828Z,18.80
2018-05-27T04:41:14.831Z,19.50
2018-05-27T04:43:44.592Z,21.90
2018-05-27T04:46:13.580Z,21.80
2018-05-27T04:48:42.504Z,23.10
2018-05-27T04:51:11.473Z,24.10
2018-05-27T04:53:40.424Z,25.80
2018-05-27T04:56:09.393Z,27.60
2018-05-27T04:58:39.148Z,29.40
2018-05-27T05:01:08.134Z,29.30
2018-05-27T05:03:37.079Z,30.20
2018-05-27T05:06:06.044Z,30.50
2018-05-27T05:08:35.021Z,31.10
2018-05-27T05:11:04.041Z,31.50
2018-05-27T05:13:32.973Z,31.70
2018-05-27T05:16:01.917Z,31.40
2018-05-27T05:18:30.871Z,31.50
2018-05-27T05:20:59.840Z,31.50
2018-05-27T05:23:28.787Z,31.50
2018-05-27T05:25:57.709Z,32.10
2018-05-27T05:28:27.445Z,32.10
2018-05-27T05:30:56.389Z,32.00
2018-05-27T05:33:25.333Z,31.60
2018-05-27T05:35:54.277Z,31.90
2018-05-27T05:38:23.229Z,32.10
2018-05-27T05:40:52.175Z,32.70
2018-05-27T05:43:21.132Z,32.90
2018-05-27T05:45:50.064Z,32.90
2018-05-27T05:48:19.735Z,33.30
2018-05-27T05:50:48.628Z,33.20
2018-05-27T05:53:17.565Z,33.20
2018-05-27T05:55:47.303Z,33.70
2018-05-27T05:58:16.263Z,33.60
2018-05-27T06:00:46.018Z,33.40
2018-05-27T06:03:14.961Z,33.40
2018-05-27T06:05:44.715Z,33.40
2018-05-27T06:08:13.683Z,33.40
2018-05-27T06:10:42.601Z,33.60
2018-05-27T06:13:11.567Z,34.50
2018-05-27T06:15:40.534Z,34.50
2018-05-27T06:18:10.240Z,34.30
2018-05-27T06:20:39.947Z,34.30
2018-05-27T06:23:08.928Z,34.30
2018-05-27T06:25:37.901Z,34.60
2018-05-27T06:28:06.847Z,34.90
2018-05-27T06:30:35.762Z,35.60
2018-05-27T06:33:04.704Z,36.10
2018-05-27T06:35:33.670Z,37.00
2018-05-27T06:38:02.601Z,37.00
2018-05-27T06:40:32.304Z,36.60
2018-05-27T06:43:02.022Z,36.00
2018-05-27T06:45:30.963Z,35.90
2018-05-27T06:47:59.962Z,35.80
2018-05-27T06:50:28.930Z,36.10
2018-05-27T06:52:57.894Z,36.30
2018-05-27T06:55:26.811Z,37.30
2018-05-27T06:57:55.724Z,37.80
2018-05-27T07:00:24.700Z,37.90
2018-05-27T07:02:53.658Z,38.30
2018-05-27T07:05:22.607Z,39.00
2018-05-27T07:07:51.534Z,39.60
2018-05-27T07:10:20.470Z,39.60
2018-05-27T07:12:49.391Z,40.20
2018-05-27T07:15:18.390Z,40.70
2018-05-27T07:17:47.327Z,40.40
2018-05-27T07:20:16.227Z,39.80
2018-05-27T07:22:45.181Z,39.40
2018-05-27T07:25:15.035Z,38.40
2018-05-27T07:27:44.027Z,38.30
2018-05-27T07:30:12.961Z,37.90
2018-05-27T07:32:41.910Z,38.50
2018-05-27T07:35:10.858Z,38.80
2018-05-27T07:37:40.569Z,39.80
2018-05-27T07:40:10.400Z,40.00
2018-05-27T07:42:39.326Z,40.00
2018-05-27T07:45:08.302Z,39.80
2018-05-27T07:47:37.272Z,39.90
2018-05-27T07:50:07.009Z,39.70
2018-05-27T07:52:36.043Z,39.70
2018-05-27T07:55:04.968Z,40.00
2018-05-27T07:57:33.899Z,40.70
2018-05-27T08:00:02.917Z,41.10
2018-05-27T08:02:31.863Z,40.70
2018-05-27T08:05:00.807Z,38.80
2018-05-27T08:07:29.760Z,37.90
2018-05-27T08:09:58.676Z,37.00
2018-05-27T08:12:27.633Z,35.80
2018-05-27T08:14:56.558Z,34.90
2018-05-27T08:17:25.515Z,33.90
2018-05-27T08:19:54.498Z,32.90
2018-05-27T08:22:23.423Z,32.60
2018-05-27T08:24:52.359Z,32.20
2018-05-27T08:27:21.304Z,31.70
2018-05-27T08:29:50.258Z,31.30
2018-05-27T08:32:19.181Z,30.90
2018-05-27T08:34:48.166Z,30.50
2018-05-27T08:37:19.211Z,30.30
2018-05-27T08:39:48.515Z,30.40
2018-05-27T08:42:19.469Z,31.90
2018-05-27T08:44:48.948Z,31.90
2018-05-27T08:47:17.964Z,31.40
2018-05-27T08:49:46.906Z,31.40
2018-05-27T08:52:15.879Z,31.40
2018-05-27T08:54:45.562Z,31.40
2018-05-27T08:57:14.694Z,31.30
2018-05-27T08:59:43.993Z,31.50
2018-05-27T09:02:12.975Z,31.60
2018-05-27T09:04:41.897Z,31.60
2018-05-27T09:07:10.866Z,31.40
2018-05-27T09:09:40.631Z,31.80
2018-05-27T09:12:09.631Z,31.70
2018-05-27T09:14:38.530Z,33.20
2018-05-27T09:17:07.489Z,34.20
2018-05-27T09:19:36.515Z,35.30
2018-05-27T09:22:05.575Z,36.10
2018-05-27T09:24:34.548Z,36.60
2018-05-27T09:27:03.508Z,37.50
2018-05-27T09:29:33.293Z,37.00
2018-05-27T09:32:02.320Z,36.90
2018-05-27T09:34:32.045Z,37.00
2018-05-27T09:37:00.966Z,36.90
2018-05-27T09:39:29.883Z,36.00
2018-05-27T09:41:59.353Z,35.10
2018-05-27T09:44:28.326Z,35.30
2018-05-27T09:46:57.295Z,35.70
2018-05-27T09:49:27.139Z,36.10
2018-05-27T09:51:56.154Z,36.10
2018-05-27T09:54:25.127Z,36.70
2018-05-27T09:56:54.204Z,36.90
2018-05-27T09:59:23.257Z,37.40
2018-05-27T10:01:52.327Z,37.60
2018-05-27T10:04:21.340Z,37.70
2018-05-27T10:06:50.325Z,37.70
2018-05-27T10:09:19.307Z,37.80
2018-05-27T10:11:48.333Z,38.20
2018-05-27T10:14:17.205Z,38.10
2018-05-27T10:16:46.172Z,37.50
2018-05-27T10:19:15.154Z,36.60
2018-05-27T10:21:44.297Z,36.30
2018-05-27T10:24:13.268Z,36.70
2018-05-27T10:26:42.225Z,37.00
2018-05-27T10:29:11.391Z,36.40
2018-05-27T10:31:40.317Z,35.50
2018-05-27T10:34:09.261Z,35.00
2018-05-27T10:36:38.237Z,34.80
2018-05-27T10:39:07.222Z,34.30
2018-05-27T10:41:36.172Z,33.90
2018-05-27T10:44:05.906Z,34.20
2018-05-27T10:46:34.852Z,34.10
2018-05-27T10:49:03.821Z,34.70
2018-05-27T10:51:32.762Z,35.20
2018-05-27T10:54:01.716Z,35.20
2018-05-27T10:56:30.836Z,34.90
2018-05-27T10:59:00.615Z,35.20
2018-05-27T11:01:29.551Z,35.20
2018-05-27T11:03:58.486Z,35.20
2018-05-27T11:06:27.481Z,35.80
2018-05-27T11:08:56.491Z,35.50
2018-05-27T11:11:25.423Z,35.60
2018-05-27T11:13:54.457Z,35.50
2018-05-27T11:16:23.436Z,34.80
2018-05-27T11:18:52.372Z,34.50
2018-05-27T11:21:21.372Z,33.60
2018-05-27T11:23:51.157Z,32.80
2018-05-27T11:26:20.129Z,32.70
2018-05-27T11:28:49.156Z,32.30
2018-05-27T11:31:18.111Z,32.20
2018-05-27T11:33:47.036Z,32.40
2018-05-27T11:36:42.073Z,32.70
2018-05-27T11:39:11.137Z,32.60
2018-05-27T11:41:40.138Z,31.90
2018-05-27T11:44:32.082Z,31.70
2018-05-27T11:47:01.171Z,31.60
2018-05-27T11:49:30.914Z,32.30
2018-05-27T11:52:04.310Z,32.30
2018-05-27T11:54:33.237Z,32.30
2018-05-27T11:57:02.247Z,32.50
2018-05-27T11:59:31.238Z,32.40
2018-05-27T12:02:00.304Z,32.40
2018-05-27T12:04:29.243Z,32.70
2018-05-27T12:07:00.422Z,32.90
2018-05-27T12:09:30.714Z,32.80
2018-05-27T12:11:59.553Z,32.80
2018-05-27T12:14:28.559Z,32.90
2018-05-27T12:16:57.596Z,32.80
2018-05-27T12:19:26.682Z,32.60
2018-05-27T12:21:55.729Z,32.60
2018-05-27T12:24:24.875Z,32.70
2018-05-27T12:26:53.859Z,32.70
2018-05-27T12:29:22.822Z,32.80
2018-05-27T12:31:51.809Z,32.70
2018-05-27T12:34:20.891Z,32.70
2018-05-27T12:36:49.814Z,32.60
2018-05-27T12:39:20.091Z,32.70
2018-05-27T12:41:48.990Z,32.70
2018-05-27T12:44:17.947Z,32.70
2018-05-27T12:46:46.951Z,32.30
2018-05-27T12:49:15.908Z,32.30
2018-05-27T12:51:50.047Z,32.10
2018-05-27T12:54:29.948Z,32.00
2018-05-27T12:57:08.471Z,32.10
2018-05-27T12:59:38.229Z,32.00
2018-05-27T13:02:07.277Z,31.60
2018-05-27T13:04:36.348Z,31.50
2018-05-27T13:07:05.320Z,31.50
2018-05-27T13:09:34.312Z,31.30
2018-05-27T13:12:03.322Z,31.40
2018-05-27T13:14:32.424Z,31.30
2018-05-27T13:17:01.531Z,30.90
2018-05-27T13:19:30.425Z,30.40
2018-05-27T13:21:59.481Z,30.00
2018-05-27T13:24:29.403Z,29.80
2018-05-27T13:27:05.871Z,29.80
2018-05-27T13:29:38.249Z,29.80
2018-05-27T13:32:07.969Z,30.20
2018-05-27T13:34:40.175Z,30.00
2018-05-27T13:37:10.264Z,30.20
2018-05-27T13:39:39.261Z,30.50
2018-05-27T13:42:08.292Z,30.80
2018-05-27T13:44:38.238Z,30.80
2018-05-27T13:47:09.394Z,30.90
2018-05-27T13:49:38.458Z,31.00
2018-05-27T13:52:07.602Z,30.90
2018-05-27T13:54:36.573Z,30.70
2018-05-27T13:57:05.585Z,30.60
2018-05-27T13:59:34.704Z,30.60
2018-05-27T14:02:03.752Z,30.50
2018-05-27T14:04:40.463Z,30.40
2018-05-27T14:07:16.026Z,30.60
2018-05-27T14:09:48.086Z,30.60
2018-05-27T14:12:25.418Z,30.60
2018-05-27T14:18:19.781Z,30.70
2018-05-27T14:43:23.320Z,30.20
2018-05-27T14:45:52.422Z,30.40
2018-05-27T14:48:22.238Z,30.80
2018-05-27T14:50:51.304Z,30.70
2018-05-27T14:53:23.473Z,30.80
2018-05-27T14:58:57.905Z,30.70
2018-05-27T15:04:56.306Z,30.80
2018-05-27T15:07:25.268Z,30.70
2018-05-27T15:09:54.202Z,30.60
2018-05-27T15:12:23.142Z,30.40
2018-05-27T15:14:52.131Z,30.40
2018-05-27T15:17:21.104Z,30.30
2018-05-27T15:19:50.840Z,30.20
2018-05-27T15:22:19.809Z,30.20
2018-05-27T15:24:48.783Z,30.10
2018-05-27T15:27:18.539Z,30.00
2018-05-27T15:32:44.564Z,30.00
2018-05-27T15:35:13.623Z,30.10
2018-05-27T15:37:42.583Z,30.10
2018-05-27T15:40:11.611Z,30.00
2018-05-27T15:42:41.457Z,29.70
2018-05-27T15:45:10.429Z,29.60
2018-05-27T15:47:40.156Z,29.70
2018-05-27T15:50:09.076Z,29.60
2018-05-27T15:52:38.052Z,29.60
2018-05-27T15:55:10.178Z,29.60
2018-05-27T15:57:39.084Z,29.60
2018-05-27T16:00:08.013Z,29.60
2018-05-27T16:02:36.937Z,29.60
2018-05-27T16:05:05.927Z,29.40
2018-05-27T16:07:35.647Z,29.20
2018-05-27T16:10:05.500Z,29.10
2018-05-27T16:12:34.437Z,29.00
2018-05-27T16:15:03.405Z,28.90
2018-05-27T16:17:32.305Z,28.90
2018-05-27T16:20:01.222Z,28.70
2018-05-27T16:22:30.188Z,28.50
2018-05-27T16:24:59.084Z,28.40
2018-05-27T16:27:28.056Z,28.30
2018-05-27T16:29:56.947Z,28.10
2018-05-27T16:32:25.866Z,28.10
2018-05-27T16:34:54.787Z,28.10
2018-05-27T16:37:24.484Z,28.20
2018-05-27T16:39:53.417Z,28.10
2018-05-27T16:42:23.184Z,28.20
2018-05-27T16:44:52.075Z,28.20
2018-05-27T16:47:21.013Z,28.30
2018-05-27T16:49:49.949Z,28.30
2018-05-27T16:52:18.918Z,28.40
2018-05-27T16:54:47.873Z,28.30
2018-05-27T16:57:16.863Z,28.30
2018-05-27T16:59:45.821Z,28.20
2018-05-27T17:02:14.810Z,28.20
2018-05-27T17:04:43.761Z,28.20
2018-05-27T17:07:12.764Z,28.20
2018-05-27T17:09:41.687Z,28.10
2018-05-27T17:12:10.633Z,28.00
2018-05-27T17:14:39.573Z,28.00
2018-05-27T17:17:08.477Z,27.90
2018-05-27T17:19:37.381Z,27.90
2018-05-27T17:22:07.029Z,27.80
2018-05-27T17:24:35.999Z,27.70
2018-05-27T17:27:04.938Z,27.70
2018-05-27T17:29:33.902Z,27.70
2018-05-27T17:32:02.813Z,27.60
2018-05-27T17:34:31.783Z,27.60
2018-05-27T17:37:00.782Z,27.50
2018-05-27T17:39:29.784Z,27.40
2018-05-27T17:41:58.791Z,27.30
2018-05-27T17:44:27.728Z,27.30
2018-05-27T17:46:56.891Z,27.20
2018-05-27T17:49:32.339Z,27.00
2018-05-27T17:52:01.442Z,27.00
2018-05-27T17:54:30.488Z,26.90
2018-05-27T17:57:00.342Z,26.90
2018-05-27T17:59:31.116Z,26.80
2018-05-27T18:02:00.163Z,26.70
2018-05-27T18:04:32.056Z,26.60
2018-05-27T18:07:15.800Z,26.50
2018-05-27T18:09:46.779Z,26.20
2018-05-27T18:12:16.223Z,26.20
2018-05-27T18:14:45.985Z,26.10
2018-05-27T18:17:15.039Z,26.00
2018-05-27T18:19:44.075Z,26.00
2018-05-27T18:22:13.069Z,26.10
2018-05-27T18:24:42.059Z,26.00
2018-05-27T18:27:11.166Z,26.00
2018-05-27T18:29:40.162Z,25.90
2018-05-27T18:32:09.207Z,25.90
2018-05-27T18:35:01.370Z,25.80
2018-05-27T18:37:31.180Z,25.60
2018-05-27T18:40:00.120Z,25.60
2018-05-27T18:42:30.420Z,25.60
2018-05-27T18:44:59.405Z,25.50
2018-05-27T18:47:28.435Z,25.50
2018-05-27T18:49:58.157Z,25.40
2018-05-27T18:52:28.539Z,25.30
2018-05-27T18:54:57.571Z,25.30
2018-05-27T18:57:27.305Z,25.30
2018-05-27T18:59:56.322Z,25.20
2018-05-27T19:02:25.294Z,25.20
2018-05-27T19:04:54.258Z,25.20
2018-05-27T19:07:23.986Z,25.00
2018-05-27T19:09:53.055Z,25.00
2018-05-27T19:12:22.905Z,25.00
2018-05-27T19:21:18.169Z,24.80
2018-05-27T19:23:47.085Z,24.70
2018-05-27T19:26:16.063Z,24.80
2018-05-27T19:28:45.005Z,24.70
2018-05-27T19:31:13.871Z,24.50
2018-05-27T19:33:43.610Z,24.40
2018-05-27T19:36:12.542Z,24.30
2018-05-27T19:38:41.773Z,24.30
2018-05-27T19:41:11.529Z,24.20
2018-05-27T19:43:40.432Z,24.20
2018-05-27T19:46:09.380Z,24.20
2018-05-27T19:48:39.127Z,24.10
2018-05-27T19:51:08.058Z,24.10
2018-05-27T19:53:37.004Z,24.10
2018-05-27T19:56:06.805Z,24.20
2018-05-27T19:58:39.621Z,24.10
2018-05-27T20:01:08.559Z,24.10
2018-05-27T20:03:38.268Z,24.10
2018-05-27T20:06:08.063Z,24.10
2018-05-27T20:08:37.820Z,23.90
2018-05-27T20:11:06.813Z,23.90
2018-05-27T20:13:35.724Z,23.90
2018-05-27T20:16:04.734Z,23.80
2018-05-27T20:18:33.719Z,23.80
2018-05-27T20:21:02.747Z,23.80
2018-05-27T20:23:32.524Z,23.80
2018-05-27T20:26:01.558Z,23.80
2018-05-27T20:28:31.329Z,23.60
2018-05-27T20:31:01.487Z,23.50
2018-05-27T20:33:30.464Z,23.30
2018-05-27T20:35:59.407Z,23.20
2018-05-27T20:38:28.556Z,23.10
2018-05-27T20:41:00.342Z,22.60
2018-05-27T20:43:30.346Z,22.60
2018-05-27T20:45:59.301Z,22.60
2018-05-27T20:48:29.157Z,22.60
2018-05-27T20:50:58.908Z,22.60
2018-05-27T20:53:27.888Z,22.50
2018-05-27T20:55:56.878Z,22.50
2018-05-27T20:58:26.771Z,22.40
2018-05-27T21:00:55.819Z,22.40
2018-05-27T21:03:25.583Z,22.40
2018-05-27T21:05:54.540Z,22.30
2018-05-27T21:08:23.592Z,22.20
2018-05-27T21:10:52.577Z,22.20
2018-05-27T21:13:21.515Z,22.00
2018-05-27T21:15:50.480Z,21.80
2018-05-27T21:18:19.496Z,21.70
2018-05-27T21:20:48.451Z,21.60
2018-05-27T21:23:17.408Z,21.50
2018-05-27T21:25:46.455Z,21.50
2018-05-27T21:28:15.380Z,21.40
2018-05-27T21:30:45.112Z,21.30
2018-05-27T21:33:14.006Z,21.30
2018-05-27T21:35:42.966Z,21.40
2018-05-27T21:38:12.621Z,21.40
2018-05-27T21:40:41.538Z,21.30
2018-05-27T21:43:10.431Z,21.30
2018-05-27T21:45:39.379Z,21.30
2018-05-27T21:48:08.317Z,21.30
2018-05-27T21:50:37.229Z,21.30
2018-05-27T21:53:06.935Z,21.30
2018-05-27T21:55:36.607Z,21.30
2018-05-27T21:58:05.568Z,21.30
2018-05-27T22:00:34.443Z,21.30
2018-05-27T22:03:03.364Z,21.30
2018-05-27T22:05:32.285Z,21.20
2018-05-27T22:08:01.225Z,21.20
2018-05-27T22:10:30.209Z,21.10
2018-05-27T22:12:59.119Z,21.10
2018-05-27T22:15:28.102Z,21.00
2018-05-27T22:17:57.122Z,20.90
2018-05-27T22:20:26.064Z,21.00
2018-05-27T22:22:54.985Z,20.90
2018-05-27T22:25:23.895Z,20.90
2018-05-27T22:27:52.890Z,20.80
2018-05-27T22:30:21.845Z,20.70
2018-05-27T22:32:50.855Z,20.70
2018-05-27T22:35:19.751Z,20.70
2018-05-27T22:37:48.639Z,20.60
2018-05-27T22:40:17.553Z,20.60
2018-05-27T22:42:46.440Z,20.60
2018-05-27T22:45:15.389Z,20.50
2018-05-27T22:47:44.302Z,20.40
2018-05-27T22:50:13.241Z,20.30
2018-05-27T22:52:42.190Z,20.30
2018-05-27T22:55:11.170Z,20.20
2018-05-27T22:57:40.098Z,20.30
2018-05-27T23:00:09.141Z,20.20
2018-05-27T23:02:38.029Z,20.30
2018-05-27T23:05:06.941Z,20.20
2018-05-27T23:07:35.919Z,20.10
2018-05-27T23:10:04.861Z,20.10
2018-05-27T23:12:33.809Z,20.10
2018-05-27T23:15:02.790Z,20.10
2018-05-27T23:17:31.722Z,20.00
2018-05-27T23:20:00.629Z,20.00
2018-05-27T23:22:30.059Z,20.00
2018-05-27T23:24:58.965Z,19.90
2018-05-27T23:27:27.854Z,20.00
2018-05-27T23:29:56.747Z,19.90
2018-05-27T23:32:25.694Z,19.80
2018-05-27T23:34:54.634Z,19.80
2018-05-27T23:37:23.527Z,19.70
2018-05-27T23:39:52.499Z,19.70
2018-05-27T23:42:21.431Z,19.70
2018-05-27T23:44:50.387Z,19.60
2018-05-27T23:47:19.293Z,19.60
2018-05-27T23:49:48.214Z,19.60
2018-05-27T23:52:17.195Z,19.50
2018-05-27T23:54:46.095Z,19.40
2018-05-27T23:57:15.086Z,19.40
2018-05-27T23:59:44.039Z,19.30
